Circle R (354) Station Data

Red Flag Warning: No
Fire Weather Zone: 250
SDGE Region: North East
Lat/Lon: 33.286/-117.146

Observations

Time Wind Speed/Gust Temp(F) RH Fuel Moist Fuel Temp(F) Dewpt(F) Tmax(F) Tmin(F) Accum Precip 10-min Precip SL Press(mb)
6/27 4:50pm 261 7 G 12 84° 30% - - 48° 92.6° 63.6° - - -
6/27 4:40pm 254 7 G 13 85° 28% - - 48° 92.6° 63.6° - - -
6/27 4:30pm 256 7 G 13 85° 27% - - 47° 92.6° 63.6° - - -
6/27 4:20pm 246 7 G 12 85° 26% - - 46° 92.6° 63.6° - - -
6/27 4:10pm 252 8 G 13 85° 25% - - 45° 92.6° 63.6° - - -
6/27 4:00pm 258 9 G 14 86° 23% - - 44° 92.6° 63.6° - - -
6/27 3:50pm 258 9 G 16 86° 23% - - 45° 92.6° 63.6° - - -
6/27 3:40pm 260 8 G 14 87° 21% - - 43° 92.6° 63.6° - - -
6/27 3:30pm 254 9 G 16 87° 21% - - 43° 92.6° 63.6° - - -
6/27 3:20pm 250 8 G 14 87° 24% - - 46° 92.6° 63.6° - - -
6/27 3:10pm 257 9 G 15 86° 25% - - 46° 92.6° 63.6° - - -
6/27 3:00pm 267 8 G 13 87° 24% - - 46° 92.6° 63.6° - - -
6/27 2:50pm 269 7 G 14 87° 24% - - 46° 92.6° 63.6° - - -
6/27 2:40pm 268 7 G 13 88° 23% - - 45° 92.6° 63.6° - - -
6/27 2:30pm 254 7 G 13 88° 21% - - 43° 92.6° 63.6° - - -
6/27 2:20pm 260 8 G 14 88° 23% - - 45° 92.6° 63.6° - - -
6/27 2:10pm 250 8 G 13 89° 22% - - 44° 92.6° 63.6° - - -
6/27 2:00pm 246 9 G 15 89° 21% - - 44° 92.6° 63.6° - - -
6/27 1:50pm 244 10 G 15 90° 20% - - 44° 92.6° 63.6° - - -
6/27 1:40pm 238 9 G 17 90° 20% - - 44° 92.6° 63.6° - - -
6/27 1:30pm 244 8 G 16 91° 20% - - 45° 92.6° 63.6° - - -
6/27 1:20pm 248 8 G 14 91° 18% - - 41° 92.6° 63.6° - - -
6/27 1:10pm 232 8 G 13 91° 19% - - 42° 92.6° 63.6° - - -
6/27 1:00pm 231 9 G 14 91° 19% - - 42° 92.6° 63.6° - - -
6/27 12:50pm 250 8 G 14 90° 20% - - 43° 92.6° 63.6° - - -
6/27 12:40pm 245 9 G 15 90° 22% - - 46° 92.6° 63.6° - - -
6/27 12:30pm 256 7 G 12 90° 25% - - 49° 92.6° 63.6° - - -
6/27 12:20pm 267 7 G 13 90° 24% - - 48° 92.6° 63.6° - - -
6/27 12:10pm 260 6 G 12 91° 22% - - 46° 92.6° 63.6° - - -
6/27 12:00pm 255 6 G 11 90° 22% - - 46° 92.6° 63.6° - - -
6/27 11:50am 254 6 G 11 91° 22% - - 47° 92.6° 63.6° - - -
6/27 11:40am 268 6 G 11 91° 20% - - 45° 92.6° 63.6° - - -
6/27 11:30am 264 5 G 10 92° 19% - - 43° 92.6° 63.6° - - -
6/27 11:20am 248 5 G 9 92° 18% - - 42° 92.5° 63.6° - - -
6/27 11:10am 231 4 G 10 91° 18% - - 42° 91.5° 63.6° - - -
6/27 11:00am 279 4 G 10 90° 18% - - 41° 90.9° 63.6° - - -
6/27 10:50am 255 4 G 7 90° 17% - - 39° 90.7° 63.6° - - -
6/27 10:40am 303 2 G 5 89° 16% - - 38° 89.9° 63.6° - - -
6/27 10:30am 257 3 G 6 88° 16% - - 36° 88.8° 63.6° - - -
6/27 10:20am 256 4 G 7 87° 15% - - 34° 87.8° 63.6° - - -
6/27 10:10am 258 4 G 9 86° 16% - - 35° 86.8° 63.6° - - -
6/27 10:00am 258 4 G 7 86° 17% - - 37° 86.5° 63.6° - - -
6/27 9:50am 249 3 G 5 86° 19% - - 39° 86.5° 63.6° - - -
6/27 9:40am 267 3 G 7 85° 20% - - 40° 85.3° 63.6° - - -
6/27 9:30am 227 3 G 6 84° 22% - - 41° 85.1° 63.6° - - -
6/27 9:20am 252 3 G 5 83° 22% - - 40° 83.4° 63.6° - - -
6/27 9:10am 213 3 G 6 81° 25% - - 42° 83.1° 63.6° - - -
6/27 9:00am 199 3 G 4 80° 23% - - 40° 81.3° 63.6° - - -
6/27 8:50am 204 3 G 5 81° 22% - - 38° 81.3° 63.6° - - -
6/27 8:40am 186 3 G 5 80° 21% - - 37° 81.2° 63.6° - - -
6/27 8:30am 163 2 G 4 80° 21% - - 37° 80.2° 63.6° - - -
6/27 8:20am 159 2 G 3 79° 21% - - 36° 79.4° 63.6° - - -
6/27 8:10am 161 2 G 3 78° 22% - - 37° 78.9° 63.6° - - -
6/27 8:00am 154 1 G 2 76° 24% - - 37° 77.6° 63.6° - - -
6/27 7:50am 165 1 G 2 75° 25% - - 37° 75.8° 63.6° - - -
6/27 7:40am 141 1 G 2 74° 26% - - 37° 75.7° 63.6° - - -
6/27 7:30am 169 1 G 2 74° 25% - - 36° 75° 63.6° - - -
6/27 7:20am 180 0 G 2 73° 26% - - 36° 74.5° 63.6° - - -
6/27 7:10am 191 0 G 1 72° 27% - - 36° 73.1° 63.6° - - -
6/27 7:00am 165 0 G 1 71° 28% - - 36° 71.6° 63.6° - - -
6/27 6:50am 173 0 G 1 69° 29% - - 36° 69.8° 63.6° - - -
6/27 6:40am 231 0 G 1 69° 30% - - 36° 69.6° 63.6° - - -
6/27 6:30am 0 0 G 0 68° 30% - - 36° 69.6° 63.6° - - -
6/27 6:20am 253 0 G 1 67° 31% - - 35° 69.6° 63.6° - - -
6/27 6:10am 0 0 G 0 65° 34% - - 36° 69.6° 63.6° - - -
6/27 6:00am 6 0 G 1 65° 34% - - 36° 69.6° 63.6° - - -
6/27 5:50am 6 0 G 1 65° 35% - - 37° 69.6° 63.6° - - -
6/27 5:40am 212 1 G 2 65° 35% - - 37° 69.6° 63.6° - - -
6/27 5:30am 231 1 G 1 65° 39% - - 39° 69.6° 63.6° - - -
6/27 5:20am 0 0 G 0 64° 41% - - 40° 69.6° 63.6° - - -
6/27 5:10am 0 0 G 0 64° 40% - - 40° 69.6° 63.9° - - -
6/27 5:00am 220 0 G 1 65° 41% - - 41° 69.6° 64.1° - - -
6/27 4:50am 0 0 G 0 65° 40% - - 40° 69.6° 64.5° - - -
6/27 4:40am 19 0 G 1 65° 40% - - 40° 69.6° 65.1° - - -
6/27 4:30am 220 1 G 1 66° 40% - - 41° 69.6° 65.1° - - -
6/27 4:20am 205 1 G 1 66° 39% - - 41° 69.6° 65.1° - - -
6/27 4:10am 356 0 G 2 66° 40% - - 41° 69.6° 65.1° - - -
6/27 4:00am 299 1 G 2 65° 42% - - 42° 69.6° 65.1° - - -
6/27 3:50am 259 1 G 2 66° 42% - - 42° 69.6° 65.3° - - -
6/27 3:40am 232 0 G 2 66° 41% - - 42° 69.6° 65.6° - - -
6/27 3:30am 306 0 G 2 66° 41% - - 42° 69.6° 65.6° - - -
6/27 3:20am 248 1 G 2 67° 39% - - 41° 69.6° 65.6° - - -
6/27 3:10am 308 1 G 3 67° 38% - - 41° 69.6° 65.6° - - -
6/27 3:00am 263 1 G 3 67° 43% - - 43° 69.6° 65.6° - - -
6/27 2:50am 302 2 G 5 67° 46% - - 45° 69.6° 65.6° - - -
6/27 2:40am 139 2 G 4 67° 47% - - 46° 69.6° 65.6° - - -
6/27 2:30am 313 1 G 3 66° 49% - - 46° 69.6° 65.6° - - -
6/27 2:20am 219 1 G 2 68° 45% - - 46° 69.6° 65.6° - - -
6/27 2:10am 323 2 G 4 68° 45% - - 46° 69.6° 65.6° - - -
6/27 2:00am 326 1 G 3 67° 52% - - 48° 69.4° 65.6° - - -
6/27 1:50am 285 1 G 2 67° 52% - - 49° 69.4° 65.6° - - -
6/27 1:40am 191 0 G 2 67° 53% - - 49° 69.4° 65.6° - - -
6/27 1:30am 252 1 G 2 67° 53% - - 50° 69.4° 65.6° - - -
6/27 1:20am 326 1 G 2 67° 54% - - 49° 69.4° 65.6° - - -
6/27 1:10am 215 1 G 2 66° 56% - - 50° 69.4° 65.6° - - -
6/27 1:00am 166 1 G 2 68° 55% - - 51° 69.4° 67.1° - - -
6/27 12:50am 237 0 G 1 68° 57% - - 53° 69.4° 67.9° - - -
6/27 12:40am 0 0 G 0 68° 57% - - 53° 69.4° 67.9° - - -
6/27 12:30am 238 0 G 1 68° 57% - - 52° 69.4° 68° - - -
6/27 12:20am 235 0 G 1 69° 56% - - 52° 69.4° 68.3° - - -
6/27 12:10am 1 0 G 1 69° 55% - - 52° 69.4° 68.9° - - -
6/27 12:00am 26 2 G 3 69° 55% - - 52° 94.3° 63° - - -
6/26 11:50pm 34 1 G 2 68° 56% - - 52° 94.3° 63° - - -
6/26 11:40pm 171 0 G 1 68° 55% - - 51° 94.3° 63° - - -
6/26 11:30pm 230 0 G 1 68° 55% - - 52° 94.3° 63° - - -
6/26 11:20pm 14 1 G 1 69° 53% - - 51° 94.3° 63° - - -
6/26 11:10pm 149 0 G 2 71° 49% - - 51° 94.3° 63° - - -
6/26 11:00pm 308 1 G 3 73° 47% - - 51° 94.3° 63° - - -
6/26 10:50pm 291 1 G 2 72° 50% - - 53° 94.3° 63° - - -
6/26 10:40pm 289 1 G 2 72° 52% - - 53° 94.3° 63° - - -
6/26 10:30pm 346 0 G 1 71° 51% - - 53° 94.3° 63° - - -
6/26 10:20pm 253 1 G 3 72° 50% - - 52° 94.3° 63° - - -
6/26 10:10pm 193 1 G 3 74° 47% - - 52° 94.3° 63° - - -
6/26 10:00pm 299 1 G 2 75° 47% - - 53° 94.3° 63° - - -
6/26 9:50pm 319 1 G 3 75° 47% - - 54° 94.3° 63° - - -
6/26 9:40pm 31 0 G 1 75° 46% - - 53° 94.3° 63° - - -
6/26 9:30pm 260 0 G 1 76° 45% - - 53° 94.3° 63° - - -
6/26 9:20pm 242 0 G 2 76° 46% - - 54° 94.3° 63° - - -
6/26 9:10pm 0 0 G 0 76° 45% - - 53° 94.3° 63° - - -
6/26 9:00pm 215 0 G 1 76° 44% - - 53° 94.3° 63° - - -
6/26 8:50pm 235 1 G 2 77° 45% - - 54° 94.3° 63° - - -
6/26 8:40pm 238 1 G 1 78° 45% - - 55° 94.3° 63° - - -
6/26 8:30pm 239 0 G 1 79° 42% - - 53° 94.3° 63° - - -
6/26 8:20pm 217 0 G 1 80° 39% - - 52° 94.3° 63° - - -
6/26 8:10pm 38 1 G 1 80° 37% - - 51° 94.3° 63° - - -
6/26 8:00pm 235 2 G 3 81° 35% - - 51° 94.3° 63° - - -
6/26 7:50pm 242 1 G 3 82° 32% - - 50° 94.3° 63° - - -
6/26 7:40pm 200 2 G 4 83° 31% - - 49° 94.3° 63° - - -
6/26 7:30pm 232 1 G 3 84° 29% - - 49° 94.3° 63° - - -
6/26 7:20pm 249 2 G 5 85° 29% - - 49° 94.3° 63° - - -
6/26 7:10pm 245 4 G 5 86° 27% - - 48° 94.3° 63° - - -
6/26 7:00pm 273 2 G 4 87° 28% - - 50° 94.3° 63° - - -
6/26 6:50pm 301 2 G 5 87° 29% - - 51° 94.3° 63° - - -
6/26 6:40pm 298 3 G 6 88° 27% - - 50° 94.3° 63° - - -
6/26 6:30pm 233 4 G 7 88° 22% - - 45° 94.3° 63° - - -
6/26 6:20pm 247 4 G 6 89° 22% - - 45° 94.3° 63° - - -
6/26 6:10pm 256 4 G 7 90° 21% - - 44° 94.3° 63° - - -
6/26 6:00pm 238 5 G 9 90° 19% - - 43° 94.3° 63° - - -
6/26 5:50pm 260 5 G 9 90° 19% - - 42° 94.3° 63° - - -
6/26 5:40pm 245 5 G 10 90° 18% - - 42° 94.3° 63° - - -
6/26 5:30pm 238 6 G 11 91° 19% - - 43° 94.3° 63° - - -
6/26 5:20pm 239 6 G 12 91° 20% - - 44° 94.3° 63° - - -
6/26 5:10pm 236 6 G 10 92° 18% - - 43° 94.3° 63° - - -
6/26 5:00pm 246 4 G 8 92° 18% - - 42° 94.3° 63° - - -
6/26 4:50pm 235 5 G 11 92° 19% - - 44° 94.3° 63° - - -
6/26 4:40pm 243 4 G 9 92° 20% - - 45° 94.3° 63° - - -
6/26 4:30pm 229 4 G 7 92° 21% - - 46° 94.3° 63° - - -
6/26 4:20pm 239 6 G 8 92° 21% - - 46° 94.3° 63° - - -
6/26 4:10pm 228 5 G 9 92° 22% - - 47° 94.3° 63° - - -
6/26 4:00pm 245 5 G 9 93° 21% - - 47° 94.3° 63° - - -
6/26 3:50pm 224 5 G 10 92° 22% - - 48° 94.3° 63° - - -
6/26 3:40pm 244 4 G 9 94° 22% - - 49° 94.3° 63° - - -
6/26 3:30pm 229 5 G 11 93° 23% - - 49° 94.3° 63° - - -
6/26 3:20pm 248 5 G 10 93° 22% - - 48° 94.3° 63° - - -
6/26 3:10pm 247 4 G 9 93° 22% - - 49° 94.3° 63° - - -
6/26 3:00pm 246 4 G 10 93° 23% - - 49° 93.8° 63° - - -
6/26 2:50pm 255 5 G 11 92° 24% - - 50° 93.2° 63° - - -
6/26 2:40pm 239 6 G 10 92° 23% - - 49° 93.2° 63° - - -
6/26 2:30pm 258 5 G 11 92° 25% - - 51° 93.2° 63° - - -
6/26 2:20pm 240 5 G 11 92° 27% - - 53° 93.2° 63° - - -
6/26 2:10pm 264 4 G 10 91° 28% - - 54° 93.2° 63° - - -
6/26 2:00pm 275 5 G 9 91° 29% - - 54° 93.2° 63° - - -
6/26 1:50pm 267 6 G 13 90° 30% - - 54° 93.2° 63° - - -
6/26 1:40pm 282 5 G 9 91° 29% - - 54° 93.2° 63° - - -
6/26 1:30pm 285 5 G 10 91° 29% - - 55° 93.2° 63° - - -
6/26 1:20pm 268 5 G 9 92° 29% - - 55° 93.2° 63° - - -
6/26 1:10pm 268 6 G 14 91° 29% - - 55° 93.2° 63° - - -
6/26 1:00pm 258 6 G 13 92° 28% - - 54° 93.2° 63° - - -
6/26 12:50pm 258 5 G 10 92° 27% - - 53° 92.4° 63° - - -
6/26 12:40pm 267 6 G 11 91° 27% - - 52° 91.8° 63° - - -
6/26 12:30pm 262 5 G 10 91° 27% - - 53° 91.8° 63° - - -
6/26 12:20pm 271 5 G 11 91° 28% - - 53° 91.8° 63° - - -
6/26 12:10pm 255 6 G 11 90° 30% - - 55° 91.8° 63° - - -
6/26 12:00pm 266 6 G 10 90° 30% - - 55° 91.8° 63° - - -
6/26 11:50am 275 5 G 10 90° 29% - - 54° 91.8° 63° - - -
6/26 11:40am 266 4 G 9 90° 31% - - 56° 91.8° 63° - - -
6/26 11:30am 273 5 G 9 90° 32% - - 56° 91.8° 63° - - -
6/26 11:20am 268 5 G 10 89° 34% - - 57° 91.8° 63° - - -
6/26 11:10am 270 5 G 10 90° 33% - - 56° 91.8° 63° - - -
6/26 11:00am 267 5 G 10 89° 33% - - 57° 91.8° 63° - - -
6/26 10:50am 263 5 G 10 90° 31% - - 55° 91.8° 63° - - -
6/26 10:40am 267 5 G 8 90° 29% - - 54° 91.8° 63° - - -
6/26 10:30am 271 4 G 8 91° 26% - - 51° 91.8° 63° - - -
6/26 10:20am 269 4 G 7 90° 24% - - 48° 91.3° 63° - - -
6/26 10:10am 240 4 G 8 91° 24% - - 49° 91.3° 63° - - -
6/26 10:00am 242 4 G 7 90° 23% - - 47° 90.4° 63° - - -
6/26 9:50am 199 5 G 8 88° 27% - - 51° 89.2° 63° - - -
6/26 9:40am 188 4 G 7 88° 29% - - 52° 88.6° 63° - - -
6/26 9:30am 208 3 G 5 86° 31% - - 52° 86.6° 63° - - -
6/26 9:20am 206 3 G 5 86° 31% - - 52° 86.1° 63° - - -
6/26 9:10am 186 2 G 4 85° 32% - - 52° 85.6° 63° - - -
6/26 9:00am 181 2 G 4 83° 33% - - 51° 83.7° 63° - - -
6/26 8:50am 177 2 G 4 82° 34% - - 50° 82.7° 63° - - -
6/26 8:40am 167 3 G 5 81° 33% - - 49° 81.8° 63° - - -
6/26 8:30am 165 2 G 4 81° 33% - - 49° 81.3° 63° - - -
6/26 8:20am 167 2 G 4 80° 33% - - 49° 80.8° 63° - - -
6/26 8:10am 162 1 G 2 79° 33% - - 48° 80.3° 63° - - -
6/26 8:00am 154 2 G 3 78° 36% - - 49° 79.2° 63° - - -
6/26 7:50am 156 1 G 3 78° 38% - - 50° 79.2° 63° - - -
6/26 7:40am 175 1 G 2 76° 40% - - 50° 76.6° 63° - - -
6/26 7:30am 158 0 G 1 75° 41% - - 50° 76.4° 63° - - -
6/26 7:20am 183 1 G 2 74° 43% - - 50° 75.1° 63° - - -
6/26 7:10am 177 1 G 3 74° 44% - - 50° 75.1° 63° - - -
6/26 7:00am 32 2 G 5 73° 45% - - 50° 74.4° 63° - - -
6/26 6:50am 44 0 G 1 73° 46% - - 51° 73.2° 63° - - -
6/26 6:40am 131 1 G 3 72° 45% - - 49° 72.5° 63° - - -
6/26 6:30am 77 1 G 4 71° 46% - - 49° 72.4° 63° - - -
6/26 6:20am 248 0 G 1 68° 56% - - 51° 69.1° 63° - - -
6/26 6:10am 220 1 G 2 67° 61% - - 53° 68° 63° - - -
6/26 6:00am 209 0 G 1 67° 60% - - 52° 68° 63° - - -